Time;durP1;ratioP1;P1;durP2;ratioP2;P2;SDS_P1;SDS_P2;PMS_P1;PMS_P2;Temp;Humidity;BMP_temperature;BMP_pressure;BME280_temperature;BME280_humidity;BME280_pressure;Samples;Min_cycle;Max_cycle;Signal;HPM_P1;HPM_P2
2023/05/18 15:16:32;;;;;;;6.53;2.72;;;25.30;79.40;;;;;;5152597;27;20399;-73
2023/05/18 15:18:58;;;;;;;5.32;2.15;;;25.00;79.60;;;;;;5131965;28;20044;-73
2023/05/18 15:21:23;;;;;;;5.43;2.22;;;24.90;79.40;;;;;;5132001;28;20071;-74
2023/05/18 15:23:49;;;;;;;5.68;2.33;;;25.30;79.00;;;;;;5131674;28;20373;-73
2023/05/18 15:26:15;;;;;;;5.70;2.20;;;25.70;80.90;;;;;;5113190;28;20048;-74
2023/05/18 15:28:42;;;;;;;5.85;2.17;;;26.30;78.70;;;;;;5113468;28;20047;-74
2023/05/18 15:31:08;;;;;;;6.70;2.17;;;26.10;78.20;;;;;;5131700;28;20074;-73
2023/05/18 15:33:35;;;;;;;5.95;2.42;;;25.00;80.30;;;;;;5113142;28;20046;-73
2023/05/18 15:36:01;;;;;;;4.95;2.20;;;25.20;80.00;;;;;;5095956;28;20514;-74
2023/05/18 15:38:27;;;;;;;6.78;2.53;;;26.00;80.00;;;;;;5131700;28;20039;-72
2023/05/18 15:40:52;;;;;;;6.65;2.25;;;26.70;80.90;;;;;;5112808;28;20047;-75
2023/05/18 15:43:19;;;;;;;7.63;2.25;;;27.50;79.10;;;;;;5131447;28;20083;-74
2023/05/18 15:45:45;;;;;;;7.95;2.50;;;28.00;79.20;;;;;;5131419;28;20048;-74
2023/05/18 15:48:11;;;;;;;5.30;1.80;;;28.30;78.50;;;;;;5131453;28;20031;-73
2023/05/18 15:50:36;;;;;;;7.43;2.25;;;28.80;78.30;;;;;;5113170;28;20023;-74
2023/05/18 15:53:02;;;;;;;5.68;2.20;;;29.30;77.20;;;;;;5131390;28;20540;-74
2023/05/18 15:55:27;;;;;;;6.45;1.83;;;29.00;76.50;;;;;;5131070;28;20127;-74
2023/05/18 15:57:53;;;;;;;9.48;2.33;;;28.50;77.80;;;;;;5131492;28;20042;-73
2023/05/18 16:00:21;;;;;;;202.48;19.30;;;28.40;76.30;;;;;;5131245;28;20399;-74
2023/05/18 16:02:46;;;;;;;4.88;2.08;;;27.70;77.40;;;;;;5112444;28;20114;-73
2023/05/18 16:05:12;;;;;;;6.30;2.33;;;27.10;77.70;;;;;;5131081;28;20078;-73
2023/05/18 16:07:39;;;;;;;7.40;2.38;;;26.20;77.20;;;;;;5131545;28;20471;-73
2023/05/18 16:10:06;;;;;;;6.85;2.08;;;26.00;77.80;;;;;;5130782;28;20091;-73
2023/05/18 16:12:31;;;;;;;7.55;2.00;;;25.90;78.40;;;;;;5130628;28;20050;-73
2023/05/18 16:14:57;;;;;;;5.55;2.22;;;25.90;77.70;;;;;;5112051;28;20047;-73
2023/05/18 16:17:22;;;;;;;7.22;2.38;;;25.70;78.10;;;;;;5112714;28;20094;-73
2023/05/18 16:19:48;;;;;;;7.20;2.33;;;25.30;78.10;;;;;;5112054;28;20499;-73
2023/05/18 16:22:14;;;;;;;4.13;1.98;;;25.30;77.80;;;;;;5112335;28;20092;-69
2023/05/18 16:24:39;;;;;;;4.07;1.90;;;24.90;78.40;;;;;;5131117;28;20043;-69
2023/05/18 16:27:05;;;;;;;4.20;1.60;;;24.10;78.50;;;;;;5102833;28;20040;-69
2023/05/18 16:29:30;;;;;;;5.15;2.00;;;23.30;79.60;;;;;;5116838;28;20040;-69
2023/05/18 16:31:56;;;;;;;5.32;1.92;;;22.80;81.40;;;;;;5116843;28;20034;-69
2023/05/18 16:34:22;;;;;;;5.97;1.92;;;22.20;81.90;;;;;;5081359;28;20048;-69
2023/05/18 16:36:47;;;;;;;4.65;2.15;;;22.10;82.10;;;;;;5098250;28;20057;-70
2023/05/18 16:39:13;;;;;;;5.45;1.83;;;22.00;82.20;;;;;;5116384;28;20035;-69
2023/05/18 16:41:38;;;;;;;5.75;1.92;;;22.30;82.60;;;;;;5116672;28;20036;-70
2023/05/18 16:44:04;;;;;;;4.82;1.75;;;22.60;82.00;;;;;;5098334;28;20040;-70
2023/05/18 16:46:30;;;;;;;7.90;2.53;;;22.70;81.00;;;;;;5116646;28;20028;-72
2023/05/18 16:48:55;;;;;;;5.85;2.63;;;23.00;78.10;;;;;;5116587;28;20038;-71
2023/05/18 16:51:21;;;;;;;4.22;2.30;;;23.30;75.30;;;;;;5097980;28;20043;-75
2023/05/18 16:53:47;;;;;;;6.25;2.08;;;23.10;75.70;;;;;;5116444;28;20059;-74
2023/05/18 16:56:12;;;;;;;6.05;2.15;;;23.10;75.70;;;;;;5116390;28;20549;-73
2023/05/18 16:58:38;;;;;;;5.05;1.85;;;23.20;75.40;;;;;;5116385;28;20044;-67
2023/05/18 17:01:03;;;;;;;4.53;2.08;;;23.00;76.40;;;;;;5115926;28;20035;-74
2023/05/18 17:03:32;;;;;;;5.10;2.08;;;23.00;76.30;;;;;;5097664;28;20031;-74
2023/05/18 17:05:58;;;;;;;4.38;1.90;;;22.80;76.20;;;;;;5097636;28;20067;-74
